createdAt,value
2019-03-12T00:00:48.910Z,0.93
2019-03-12T00:03:23.390Z,0.78
2019-03-12T00:05:56.786Z,1.47
2019-03-12T00:08:29.805Z,1.12
2019-03-12T00:13:35.029Z,1.65
2019-03-12T00:16:08.955Z,2.58
2019-03-12T00:18:42.366Z,0.42
2019-03-12T00:21:14.864Z,1.32
2019-03-12T00:23:49.408Z,1.12
2019-03-12T00:26:22.412Z,1.52
2019-03-12T00:28:55.588Z,1.65
2019-03-12T00:31:28.407Z,1.75
2019-03-12T00:34:01.646Z,0.78
2019-03-12T00:39:06.972Z,1.25
2019-03-12T00:41:40.591Z,1.22
2019-03-12T00:44:14.303Z,1.22
2019-03-12T00:46:48.076Z,0.40
2019-03-12T00:49:22.263Z,0.83
2019-03-12T00:51:55.286Z,0.90
2019-03-12T00:54:28.478Z,0.95
2019-03-12T00:59:34.418Z,0.70
2019-03-12T01:02:07.949Z,1.12
2019-03-12T01:07:12.799Z,0.98
2019-03-12T01:09:45.861Z,1.62
2019-03-12T01:12:18.596Z,0.80
2019-03-12T01:14:51.249Z,0.90
2019-03-12T01:17:24.051Z,0.78
2019-03-12T01:19:56.778Z,0.53
2019-03-12T01:22:30.560Z,0.95
2019-03-12T01:25:02.959Z,1.30
2019-03-12T01:27:35.993Z,0.60
2019-03-12T01:30:10.828Z,1.00
2019-03-12T01:32:44.403Z,1.22
2019-03-12T01:37:48.200Z,0.70
2019-03-12T01:40:21.118Z,0.82
2019-03-12T01:42:54.336Z,1.70
2019-03-12T01:47:58.784Z,1.55
2019-03-12T01:50:31.436Z,1.77
2019-03-12T01:53:04.731Z,1.22
2019-03-12T01:58:09.315Z,1.60
2019-03-12T02:03:12.739Z,1.20
2019-03-12T02:05:45.958Z,0.78
2019-03-12T02:10:56.439Z,0.90
2019-03-12T02:13:29.677Z,0.85
2019-03-12T02:16:03.399Z,2.50
2019-03-12T02:18:37.789Z,1.70
2019-03-12T02:21:13.090Z,1.75
2019-03-12T02:23:48.541Z,1.10
2019-03-12T02:26:26.192Z,1.10
2019-03-12T02:28:59.812Z,1.15
2019-03-12T02:31:33.406Z,2.15
2019-03-12T02:36:37.947Z,1.92
2019-03-12T02:39:13.071Z,0.90
2019-03-12T02:41:47.373Z,1.42
2019-03-12T02:44:22.389Z,1.80
2019-03-12T02:46:56.485Z,1.45
2019-03-12T02:49:29.403Z,1.87
2019-03-12T02:52:02.479Z,2.10
2019-03-12T02:54:35.518Z,1.98
2019-03-12T02:59:39.410Z,1.82
2019-03-12T03:02:13.230Z,2.37
2019-03-12T03:04:46.865Z,2.42
2019-03-12T03:07:39.050Z,2.12
2019-03-12T03:10:15.207Z,2.17
2019-03-12T03:12:48.136Z,2.47
2019-03-12T03:15:24.225Z,1.82
2019-03-12T03:17:57.834Z,2.70
2019-03-12T03:23:02.983Z,2.12
2019-03-12T03:25:41.009Z,2.80
2019-03-12T03:28:17.280Z,3.02
2019-03-12T03:30:51.216Z,3.25
2019-03-12T03:33:25.980Z,2.67
2019-03-12T03:36:01.031Z,3.65
2019-03-12T03:38:34.551Z,2.95
2019-03-12T03:43:43.706Z,2.40
2019-03-12T03:46:17.346Z,2.45
2019-03-12T03:48:50.604Z,2.72
2019-03-12T03:51:24.710Z,2.30
2019-03-12T03:53:59.795Z,2.17
2019-03-12T03:56:33.275Z,3.00
2019-03-12T03:59:09.146Z,1.97
2019-03-12T04:01:41.995Z,1.95
2019-03-12T04:04:15.767Z,2.35
2019-03-12T04:06:49.572Z,3.70
2019-03-12T04:09:24.704Z,2.12
2019-03-12T04:11:58.370Z,2.22
2019-03-12T04:14:31.664Z,2.33
2019-03-12T04:17:05.091Z,2.27
2019-03-12T04:19:39.272Z,2.22
2019-03-12T04:22:12.629Z,1.67
2019-03-12T04:24:45.602Z,2.00
2019-03-12T04:27:18.598Z,2.25
2019-03-12T04:29:51.583Z,1.62
2019-03-12T04:32:25.158Z,2.10
2019-03-12T04:34:58.398Z,2.33
2019-03-12T04:37:31.061Z,1.75
2019-03-12T04:40:05.668Z,2.05
2019-03-12T04:42:39.179Z,1.32
2019-03-12T04:45:15.680Z,2.52
2019-03-12T04:47:50.816Z,0.90
2019-03-12T04:50:30.882Z,1.80
2019-03-12T04:53:05.360Z,2.10
2019-03-12T04:55:38.328Z,1.67
2019-03-12T04:58:12.285Z,1.67
2019-03-12T05:00:46.903Z,1.02
2019-03-12T05:03:20.446Z,1.27
2019-03-12T05:08:26.874Z,1.65
2019-03-12T05:11:00.462Z,1.80
2019-03-12T05:13:33.139Z,1.62
2019-03-12T05:16:06.751Z,1.00
2019-03-12T05:18:40.246Z,1.15
2019-03-12T05:21:14.873Z,1.80
2019-03-12T05:23:49.088Z,1.25
2019-03-12T05:26:25.106Z,0.90
2019-03-12T05:28:59.401Z,1.60
2019-03-12T05:31:33.009Z,1.37
2019-03-12T05:36:37.136Z,0.70
2019-03-12T05:39:11.020Z,1.50
2019-03-12T05:41:56.832Z,2.22
2019-03-12T05:44:32.467Z,2.20
2019-03-12T05:47:08.136Z,2.52
2019-03-12T05:49:41.446Z,1.37
2019-03-12T05:52:15.279Z,1.37
2019-03-12T05:54:49.223Z,3.15
2019-03-12T05:57:22.497Z,2.25
2019-03-12T05:59:57.110Z,2.12
2019-03-12T06:02:32.454Z,1.82
2019-03-12T06:05:06.250Z,2.12
2019-03-12T06:07:39.499Z,2.42
2019-03-12T06:10:13.045Z,1.80
2019-03-12T06:12:50.308Z,1.92
2019-03-12T06:15:23.471Z,2.58
2019-03-12T06:17:58.877Z,2.10
2019-03-12T06:20:32.319Z,1.90
2019-03-12T06:23:05.611Z,2.95
2019-03-12T06:25:39.693Z,2.50
2019-03-12T06:28:13.386Z,2.45
2019-03-12T06:31:01.301Z,1.42
2019-03-12T06:33:50.081Z,1.55
2019-03-12T06:36:40.656Z,2.30
2019-03-12T06:39:50.292Z,2.27
2019-03-12T06:42:37.626Z,2.30
2019-03-12T06:45:32.082Z,1.72
2019-03-12T06:48:23.887Z,1.35
2019-03-12T06:51:26.163Z,2.27
2019-03-12T06:54:18.122Z,2.17
2019-03-12T06:57:20.930Z,1.75
2019-03-12T07:00:30.921Z,2.33
2019-03-12T07:03:30.247Z,2.37
2019-03-12T07:06:13.952Z,1.62
2019-03-12T07:11:54.902Z,1.87
2019-03-12T07:14:46.811Z,0.75
2019-03-12T07:17:37.683Z,1.72
2019-03-12T07:20:27.382Z,2.42
2019-03-12T07:23:21.904Z,2.50
2019-03-12T07:26:12.463Z,1.70
2019-03-12T07:29:01.031Z,2.47
2019-03-12T07:31:43.807Z,2.02
2019-03-12T07:34:42.194Z,1.47
2019-03-12T07:37:26.622Z,1.67
2019-03-12T07:43:07.849Z,1.85
2019-03-12T07:49:17.883Z,1.87
2019-03-12T07:52:09.084Z,2.15
2019-03-12T07:54:59.827Z,2.22
2019-03-12T07:57:56.431Z,2.25
2019-03-12T08:01:04.216Z,3.40
2019-03-12T08:03:55.059Z,2.35
2019-03-12T08:06:33.967Z,2.35
2019-03-12T08:09:25.090Z,2.85
2019-03-12T08:12:20.414Z,2.75
2019-03-12T08:18:26.320Z,3.33
2019-03-12T08:21:22.210Z,3.25
2019-03-12T08:24:04.574Z,2.47
2019-03-12T08:27:03.115Z,2.90
2019-03-12T08:29:46.332Z,2.92
2019-03-12T08:32:37.298Z,2.00
2019-03-12T08:35:29.620Z,2.35
2019-03-12T08:38:10.164Z,3.17
2019-03-12T08:40:56.660Z,2.20
2019-03-12T08:43:41.327Z,3.12
2019-03-12T08:46:41.274Z,1.85
2019-03-12T08:49:38.416Z,2.27
2019-03-12T08:52:29.220Z,3.37
2019-03-12T08:55:11.611Z,3.80
2019-03-12T08:58:13.061Z,3.55
2019-03-12T09:01:11.339Z,2.55
2019-03-12T09:04:02.755Z,3.00
2019-03-12T09:07:00.731Z,2.80
2019-03-12T09:09:47.066Z,3.20
2019-03-12T09:12:27.039Z,2.25
2019-03-12T09:15:15.631Z,2.52
2019-03-12T09:18:07.852Z,2.77
2019-03-12T09:20:58.686Z,2.62
2019-03-12T09:23:50.414Z,2.55
2019-03-12T09:26:30.356Z,2.50
2019-03-12T09:29:31.770Z,2.90
2019-03-12T09:32:14.967Z,2.37
2019-03-12T09:35:13.161Z,1.90
2019-03-12T09:38:21.039Z,2.70
2019-03-12T09:41:04.503Z,2.27
2019-03-12T09:43:55.587Z,1.80
2019-03-12T09:46:50.070Z,2.12
2019-03-12T09:49:37.204Z,1.98
2019-03-12T09:52:28.875Z,1.90
2019-03-12T09:55:14.590Z,2.10
2019-03-12T09:58:05.205Z,2.08
2019-03-12T10:01:03.459Z,1.92
2019-03-12T10:04:01.947Z,2.60
2019-03-12T10:06:54.573Z,2.17
2019-03-12T10:09:38.574Z,2.40
2019-03-12T10:12:25.238Z,2.12
2019-03-12T10:15:36.343Z,2.85
2019-03-12T10:18:31.189Z,1.30
2019-03-12T10:21:25.794Z,2.00
2019-03-12T10:24:07.170Z,2.90
2019-03-12T10:26:48.538Z,2.00
2019-03-12T10:29:29.480Z,1.85
2019-03-12T10:32:20.483Z,2.00
2019-03-12T10:35:11.669Z,1.70
2019-03-12T10:37:54.971Z,2.00
2019-03-12T10:40:46.674Z,1.85
2019-03-12T10:43:39.781Z,1.42
2019-03-12T10:46:34.228Z,1.15
2019-03-12T10:49:07.842Z,1.32
2019-03-12T10:51:42.185Z,1.62
2019-03-12T10:54:15.462Z,1.55
2019-03-12T10:56:48.262Z,1.47
2019-03-12T10:59:21.533Z,1.42
2019-03-12T11:01:55.086Z,1.50
2019-03-12T11:04:28.091Z,2.22
2019-03-12T11:07:15.529Z,1.85
2019-03-12T11:09:37.247Z,2.27
2019-03-12T11:12:10.714Z,1.70
2019-03-12T11:17:15.115Z,1.70
2019-03-12T11:19:48.565Z,1.77
2019-03-12T11:24:53.830Z,1.72
2019-03-12T11:27:27.559Z,1.45
2019-03-12T11:30:00.850Z,1.70
2019-03-12T11:32:33.729Z,1.60
2019-03-12T11:37:38.169Z,1.75
2019-03-12T11:40:17.881Z,1.72
2019-03-12T11:42:51.632Z,1.52
2019-03-12T11:45:35.468Z,1.40
2019-03-12T11:48:00.971Z,1.45
2019-03-12T11:50:34.804Z,1.45
2019-03-12T11:53:08.745Z,1.70
2019-03-12T11:55:41.840Z,1.42
2019-03-12T11:58:15.552Z,1.45
2019-03-12T12:01:08.872Z,2.20
2019-03-12T12:03:42.439Z,1.67
2019-03-12T12:06:16.931Z,1.90
2019-03-12T12:08:50.891Z,1.20
2019-03-12T12:11:24.636Z,0.90
2019-03-12T12:13:58.967Z,1.72
2019-03-12T12:16:32.334Z,2.00
2019-03-12T12:21:36.715Z,1.50
2019-03-12T12:24:10.074Z,1.70
2019-03-12T12:29:14.184Z,1.65
2019-03-12T12:36:51.647Z,1.95
2019-03-12T12:39:24.409Z,1.52
2019-03-12T12:41:58.234Z,1.37
2019-03-12T12:44:33.864Z,1.75
2019-03-12T12:47:08.117Z,1.60
2019-03-12T12:49:40.921Z,1.40
2019-03-12T12:52:14.712Z,1.30
2019-03-12T12:54:47.787Z,1.37
2019-03-12T12:57:20.544Z,1.57
2019-03-12T12:59:54.533Z,2.12
2019-03-12T13:02:28.025Z,1.55
2019-03-12T13:05:01.244Z,1.10
2019-03-12T13:07:34.607Z,1.27
2019-03-12T13:10:09.651Z,1.27
2019-03-12T13:12:42.466Z,1.20
2019-03-12T13:15:15.674Z,1.20
2019-03-12T13:17:48.752Z,1.03
2019-03-12T13:20:22.942Z,1.33
2019-03-12T13:22:56.347Z,1.17
2019-03-12T13:25:29.868Z,1.67
2019-03-12T13:28:03.218Z,1.00
2019-03-12T13:30:36.421Z,1.43
2019-03-12T13:33:09.153Z,1.67
2019-03-12T13:35:42.473Z,1.20
2019-03-12T13:38:15.917Z,1.27
2019-03-12T13:40:48.673Z,1.33
2019-03-12T13:43:22.423Z,1.42
2019-03-12T13:45:55.860Z,1.30
2019-03-12T13:48:29.200Z,1.50
2019-03-12T13:51:02.667Z,1.13
2019-03-12T13:53:36.203Z,1.47
2019-03-12T13:56:09.490Z,1.10
2019-03-12T13:58:42.352Z,1.40
2019-03-12T14:01:15.082Z,1.30
2019-03-12T14:06:19.250Z,1.45
2019-03-12T14:11:24.134Z,1.17
2019-03-12T14:13:57.223Z,1.30
2019-03-12T14:16:32.599Z,1.30
2019-03-12T14:19:05.605Z,1.35
2019-03-12T14:21:43.716Z,0.95
2019-03-12T14:24:17.161Z,1.27
2019-03-12T14:26:50.558Z,1.50
2019-03-12T14:29:24.355Z,1.32
2019-03-12T14:31:57.392Z,1.10
2019-03-12T14:34:30.390Z,0.95
2019-03-12T14:37:03.752Z,1.07
2019-03-12T14:39:37.698Z,0.98
2019-03-12T14:42:11.021Z,1.40
2019-03-12T14:47:15.862Z,1.55
2019-03-12T14:52:31.800Z,1.30
2019-03-12T14:55:05.301Z,1.30
2019-03-12T14:57:38.621Z,1.35
2019-03-12T15:02:52.928Z,1.37
2019-03-12T15:05:26.528Z,1.30
2019-03-12T15:08:00.640Z,1.37
2019-03-12T15:10:34.229Z,1.37
2019-03-12T15:13:08.213Z,1.32
2019-03-12T15:15:41.984Z,1.17
2019-03-12T15:18:15.348Z,1.25
2019-03-12T15:23:19.638Z,0.90
2019-03-12T15:25:53.027Z,1.30
2019-03-12T15:30:58.531Z,1.40
2019-03-12T15:33:32.909Z,1.67
2019-03-12T15:36:06.780Z,1.40
2019-03-12T15:38:40.225Z,1.07
2019-03-12T15:43:44.351Z,1.20
2019-03-12T15:46:17.437Z,1.02
2019-03-12T15:51:23.900Z,1.12
2019-03-12T15:53:57.878Z,1.30
2019-03-12T15:56:31.243Z,1.50
2019-03-12T16:01:34.528Z,0.85
2019-03-12T16:04:07.967Z,1.20
2019-03-12T16:06:41.781Z,1.50
2019-03-12T16:09:16.218Z,1.10
2019-03-12T16:11:49.133Z,1.32
2019-03-12T16:14:22.632Z,1.30
2019-03-12T16:16:55.733Z,1.20
2019-03-12T16:19:29.365Z,1.30
2019-03-12T16:22:03.207Z,1.80
2019-03-12T16:24:36.916Z,1.52
2019-03-12T16:27:10.626Z,1.40
2019-03-12T16:29:44.417Z,1.40
2019-03-12T16:32:18.111Z,1.52
2019-03-12T16:34:51.198Z,1.30
2019-03-12T16:37:28.291Z,1.30
2019-03-12T16:40:02.367Z,1.30
2019-03-12T16:42:36.504Z,0.93
2019-03-12T16:45:10.660Z,1.40
2019-03-12T16:47:44.679Z,1.62
2019-03-12T16:50:17.775Z,1.70
2019-03-12T16:52:51.250Z,1.60
2019-03-12T16:55:24.641Z,1.32
2019-03-12T16:57:57.886Z,1.75
2019-03-12T17:00:30.642Z,1.57
2019-03-12T17:03:04.037Z,2.15
2019-03-12T17:05:37.808Z,1.32
2019-03-12T17:08:11.915Z,1.20
2019-03-12T17:10:54.385Z,1.80
2019-03-12T17:13:20.580Z,1.30
2019-03-12T17:18:27.964Z,1.25
2019-03-12T17:21:02.175Z,1.35
2019-03-12T17:23:36.221Z,1.75
2019-03-12T17:26:10.148Z,1.40
2019-03-12T17:28:44.156Z,1.60
2019-03-12T17:31:17.974Z,1.55
2019-03-12T17:33:51.874Z,1.60
2019-03-12T17:36:28.371Z,1.40
2019-03-12T17:39:01.832Z,1.20
2019-03-12T17:41:35.456Z,1.62
2019-03-12T17:44:08.483Z,1.22
2019-03-12T17:46:45.095Z,1.72
2019-03-12T17:49:18.646Z,1.50
2019-03-12T17:51:52.403Z,1.47
2019-03-12T17:54:26.338Z,1.75
2019-03-12T17:57:00.159Z,1.50
2019-03-12T17:59:33.296Z,1.65
2019-03-12T18:02:07.606Z,1.60
2019-03-12T18:04:40.660Z,1.47
2019-03-12T18:07:13.943Z,1.65
2019-03-12T18:09:48.399Z,1.57
2019-03-12T18:12:21.858Z,1.72
2019-03-12T18:14:55.269Z,1.60
2019-03-12T18:17:28.616Z,1.80
2019-03-12T18:20:01.260Z,2.00
2019-03-12T18:22:34.612Z,1.62
2019-03-12T18:25:14.451Z,2.10
2019-03-12T18:27:47.891Z,1.85
2019-03-12T18:32:53.617Z,1.80
2019-03-12T18:35:27.174Z,2.87
2019-03-12T18:38:01.295Z,2.02
2019-03-12T18:40:34.698Z,2.00
2019-03-12T18:43:08.031Z,2.10
2019-03-12T18:48:12.221Z,1.70
2019-03-12T18:50:45.630Z,1.60
2019-03-12T18:53:19.845Z,1.47
2019-03-12T18:56:05.617Z,1.72
2019-03-12T18:58:39.155Z,1.45
2019-03-12T19:03:48.510Z,2.08
2019-03-12T19:06:22.053Z,2.10
2019-03-12T19:11:26.901Z,1.40
2019-03-12T19:14:00.497Z,1.55
2019-03-12T19:16:34.391Z,1.90
2019-03-12T19:19:08.479Z,2.10
2019-03-12T19:22:27.267Z,1.60
2019-03-12T19:25:00.660Z,1.30
2019-03-12T19:27:33.020Z,1.67
2019-03-12T19:30:06.453Z,1.53
2019-03-12T19:32:46.004Z,1.60
2019-03-12T19:35:18.796Z,1.50
2019-03-12T19:37:51.887Z,1.45
2019-03-12T19:40:25.671Z,1.98
2019-03-12T19:42:58.789Z,1.92
2019-03-12T19:45:32.671Z,1.90
2019-03-12T19:48:06.193Z,1.80
2019-03-12T19:53:12.027Z,1.40
2019-03-12T19:55:46.854Z,1.27
2019-03-12T19:58:20.665Z,2.22
2019-03-12T20:00:55.101Z,1.72
2019-03-12T20:03:30.120Z,1.70
2019-03-12T20:06:04.939Z,1.60
2019-03-12T20:08:38.741Z,1.90
2019-03-12T20:11:58.066Z,2.00
2019-03-12T20:15:31.724Z,1.52
2019-03-12T20:19:21.335Z,1.35
2019-03-12T20:23:12.551Z,1.40
2019-03-12T20:26:52.578Z,1.50
2019-03-12T20:30:55.429Z,1.40
2019-03-12T20:34:29.453Z,1.65
2019-03-12T20:41:28.506Z,0.93
2019-03-12T20:45:12.172Z,1.70
2019-03-12T20:48:45.159Z,1.60
2019-03-12T20:52:15.661Z,1.52
2019-03-12T20:55:57.409Z,2.12
2019-03-12T20:59:37.612Z,1.45
2019-03-12T21:03:24.962Z,1.30
2019-03-12T21:07:15.142Z,1.05
2019-03-12T21:11:12.543Z,1.20
2019-03-12T21:14:43.385Z,1.07
2019-03-12T21:17:55.992Z,1.75
2019-03-12T21:21:24.246Z,1.50
2019-03-12T21:25:06.287Z,1.20
2019-03-12T21:28:28.294Z,1.12
2019-03-12T21:31:01.955Z,2.02
2019-03-12T21:33:35.954Z,1.07
2019-03-12T21:36:09.705Z,1.47
2019-03-12T21:38:43.759Z,1.30
2019-03-12T21:41:17.186Z,1.30
2019-03-12T21:43:50.632Z,1.27
2019-03-12T21:46:24.495Z,0.90
2019-03-12T21:48:57.454Z,1.15
2019-03-12T21:51:31.215Z,1.10
2019-03-12T21:54:04.945Z,1.20
2019-03-12T21:56:38.597Z,1.20
2019-03-12T21:59:12.137Z,1.05
2019-03-12T22:04:16.259Z,0.75
2019-03-12T22:06:49.705Z,0.98
2019-03-12T22:09:24.218Z,1.02
2019-03-12T22:11:57.559Z,1.10
2019-03-12T22:14:29.669Z,1.00
2019-03-12T22:17:04.927Z,0.80
2019-03-12T22:19:39.334Z,1.20
2019-03-12T22:22:36.146Z,1.30
2019-03-12T22:25:11.947Z,1.02
2019-03-12T22:27:45.266Z,1.00
2019-03-12T22:30:21.002Z,1.20
2019-03-12T22:32:53.990Z,1.15
2019-03-12T22:35:27.345Z,1.00
2019-03-12T22:40:31.785Z,1.17
2019-03-12T22:43:04.777Z,1.35
2019-03-12T22:45:38.015Z,1.25
2019-03-12T22:50:43.757Z,1.10
2019-03-12T22:53:16.817Z,1.02
2019-03-12T22:55:50.363Z,1.42
2019-03-12T22:58:23.765Z,1.15
2019-03-12T23:00:58.296Z,1.03
2019-03-12T23:03:31.312Z,1.45
2019-03-12T23:06:06.085Z,1.17
2019-03-12T23:08:39.512Z,1.40
2019-03-12T23:11:12.444Z,1.30
2019-03-12T23:13:45.802Z,1.10
2019-03-12T23:16:20.183Z,1.42
2019-03-12T23:18:52.900Z,1.20
2019-03-12T23:21:25.580Z,0.80
2019-03-12T23:23:58.578Z,1.32
2019-03-12T23:26:32.265Z,1.57
2019-03-12T23:29:05.836Z,1.47
2019-03-12T23:34:11.449Z,1.10
2019-03-12T23:36:45.201Z,1.45
2019-03-12T23:39:19.050Z,1.10
2019-03-12T23:41:51.997Z,1.10
2019-03-12T23:44:24.398Z,1.00
2019-03-12T23:46:57.899Z,0.93
2019-03-12T23:49:31.472Z,1.07
2019-03-12T23:52:05.227Z,0.90
2019-03-12T23:54:38.586Z,1.15
2019-03-12T23:57:12.199Z,0.90
2019-03-12T23:59:44.939Z,1.32
